Airfield :
LOGIN :

Register | Disclaimer

   EN    FR    IT 

 










Legend :    VFR   Marginal VFR   IFR   Intensive IFR   Very Intensive IFR
Visi :
Ceiling :
>= 8 km
>= 3000ft
5 to 8 km
1000 to 3000 ft
1500m to 5 km
500 to 1000 ft
800 to 1500m
200 to 500 ft
< 800m
< 200 ft
Symbols :   Thunderstorms  Fog  Heavy snow  Heavy precipitations  Wind > 20 kt
SIGMETs :     Misc.  Thunderstorms  Icing  Turbulence  Mountain Waves  Volcanic Ashes






- Airport Elevation : 52 ft
- IATA code : RNN


EKRN - Bornholm Ronne

CURRENT METAR :
  • 040850Z AUTO 09016KT 9999 NCD 17/08 Q1000

EXPIRED METARs :
  • 040820Z AUTO 09014KT 060V130 9999 NCD 16/08 Q1000
  • 040750Z AUTO 09013KT 9999 NCD 16/08 Q1000
  • 040720Z AUTO 09012KT 060V120 9999 NCD 16/08 Q1000
  • 040650Z AUTO 09014KT 9999 NCD 15/07 Q1000
  • 040620Z AUTO 09011KT 060V120 9999 NCD 15/08 Q1001

TAF TAF EKRN
Valid from the 04 at 09:00 until the 04 at 18:00 UTC


040822Z 0409/0418 10015KT CAVOK
TEMPO 0409/0418 11015G28KT



MET'MAP, your aeronautical weather chart ! - Copyright ORBIFLY December 2007 - Disclaimer

ORBIFLY MET'MAP TEAM :

Programming & Development : Alexandra Zaïnal
Concept & original design : Baudouin d'Aumeries
Assistance for programming : Marc-Olivier Méhu
Technical & hardware support : Manuel Goepfert

Contact : metmap@orbifly.com




SOURCES & CREDITS :

   NOAA